Flight Track Log - Related Links

Times and Time Zones

All times are in EDT time to prevent confusion due to time zone crossing. See the RPA4907 flight status page for this flight to view local times or setup timezone preferences in your user account.

Time Position Orientation Groundspeed Altitude Reporting Facility
EDT Latitude Longitude Course Direction KTS MPH feet Rate Location/Type
Mon 12:49:26 PM 40.6500 -74.1833 207° Southwest 181 208 1,800  Level New York TRACON
Mon 12:50:20 PM 40.6000 -74.2167 207° Southwest 216 249 3,400 1,947 Climbing New York TRACON
Mon 12:51:20 PM 40.5500 -74.2500 207° Southwest 233 268 5,500 1,238 Climbing New York TRACON
Mon 12:52:26 PM 40.4667 -74.2333 171° South 271 312 6,000 47 Climbing New York TRACON
Mon 12:54:00 PM 40.3471 -74.1735 159° South  Level FlightAware Approximate
Mon 01:01:00 PM 39.8432 -74.3927 215° Southwest  Level FlightAware Approximate
Mon 01:02:00 PM 39.7759 -74.4530 214° Southwest  Level FlightAware Approximate
Mon 01:02:04 PM 39.8328 -74.4161 216° Southwest 256 295 6,000  Level Washington Center
Mon 01:03:00 PM 39.7085 -74.5129 214° Southwest  Level FlightAware Approximate
Mon 01:04:00 PM 39.7032 -74.5206 212° Southwest  Level FlightAware Approximate
Mon 01:04:00 PM 39.6443 -74.5723 218° Southwest  Level FlightAware Approximate
Mon 01:05:00 PM 39.5819 -74.6348 218° Southwest  Level FlightAware Approximate
Mon 01:06:00 PM 39.5194 -74.6973 218° Southwest  Level FlightAware Approximate
Mon 01:06:52 PM 39.5450 -74.6417 168° South 254 292 6,000  Level Washington Center
Mon 01:07:00 PM 39.4560 -74.7579 216° Southwest  Level FlightAware Approximate
Mon 01:08:00 PM 39.4958 -74.7206 216° Southwest  Level FlightAware Approximate
Mon 01:10:55 PM 39.2964 -74.8353 203° Southwest 253 291 6,000  Level Washington Center
Mon 01:11:00 PM 39.5401 -75.2053 203° Southwest  Level Estimated
Mon 01:12:00 PM 39.2258 -74.8975 214° Southwest  Level FlightAware Approximate
Mon 01:12:00 PM 39.4629 -75.1841 168° South  Level FlightAware Approximate
Mon 01:15:00 PM 39.0222 -75.0778 218° Southwest  Level FlightAware Approximate
Mon 01:16:00 PM 38.9504 -75.1191 203° Southwest  Level FlightAware Approximate
Mon 01:19:00 PM 39.2088 -75.6097 266° West  Level Estimated
Mon 01:20:00 PM 39.1315 -75.5897 169° South  Level FlightAware Approximate
Mon 01:21:00 PM 39.1360 -75.6912 264° West  Level Estimated
Mon 01:21:10 PM 38.9333 -75.6000 310° West 255 293 6,000  Level Potomac TRACON
Mon 01:22:00 PM 39.0573 -75.6966 183° South  Level FlightAware Approximate
Mon 01:22:10 PM 38.9000 -75.6667 237° Southwest 256 295 6,000  Level Potomac TRACON
Mon 01:23:00 PM 39.0699 -75.7969 265° West  Level Estimated
Mon 01:23:04 PM 38.8833 -75.7500 256° West 257 296 6,000  Level Potomac TRACON
Mon 01:24:00 PM 38.9960 -75.8324 200° South  Level FlightAware Approximate
Mon 01:24:10 PM 38.9000 -75.8500 282° West 253 291 6,000  Level Potomac TRACON
Mon 01:25:00 PM 39.0173 -75.9301 270° West  Level Estimated
Mon 01:25:04 PM 38.9000 -75.9167 270° West 253 291 6,000  Level Potomac TRACON
Mon 01:26:00 PM 39.0385 -76.0278 310° West  Level Estimated
Mon 01:26:04 PM 38.9167 -76.0167 282° West 254 292 5,700  Level Potomac TRACON
Mon 01:27:04 PM 38.9333 -76.1000 284° West 248 285 4,600 -887 Descending Potomac TRACON
Mon 01:27:59 PM 38.9500 -76.1833 284° West 246 283 4,000 -313 Descending Potomac TRACON
Mon 01:28:59 PM 38.9500 -76.2667 270° West 241 277 4,000  Level Potomac TRACON
Mon 01:30:05 PM 38.9833 -76.3500 297° West 236 272 4,000 -143 Level Potomac TRACON
Mon 01:31:05 PM 39.0167 -76.4167 303° West 233 268 3,700 -500 Descending Potomac TRACON
Mon 01:32:05 PM 39.0333 -76.5000 284° West 240 276 3,000 -550 Descending Potomac TRACON
Mon 01:33:05 PM 39.0667 -76.5667 303° West 242 278 2,600 -400 Descending Potomac TRACON

Login

Don't have an account? Register now (free) for customized features, flight alerts, and more!